»·PEaware :: N370BC KBXK-KTRM

N370BC :: KBXK-KTRM

FLIGHT INFORMATION

Flight Status: Arrived
Operator: Privately registered:
United States
More flights under this callsign
Pilot: Drew L. (13237)
Aircraft: BOEING 737-200
(B732)
More flights by this aircraft type
Origin: KBXK Buckeye Mun
United States
Destination: KTRM Desert Resorts Regl
United States
More flights between these airports :: More routes between these airports
Route: BLH SBONO1
File this flight plan on PilotEdge
Remarks:
Altitude:
(Current/Filed)
22,000ft
Speed:
(Current/Filed)
0kts
Departed: 13-Aug-18 09:27 PM
Arrived: 13-Aug-18 10:04 PM
Distance/Time
Traveled:
174nm/0:37
Distance/Time
To Go:
Arrived

Flight Plot

Page will automatically refresh every two minutes.

Flight plan parsing failed; only flown route is shown


Map Options




Map Legend


Flown Route
Filed Route
Departure Airport
Arrival Airport
Navaid (VOR, NDB)
Fix

Horizontal Profiles

Position Reports

Time Latitude Longitude Heading Altitude Ground
Speed
13-Aug-18 21:17 33.420316 -112.683775 182 1010ft 0kts
13-Aug-18 21:18 33.420316 -112.683775 182 1010ft 0kts
13-Aug-18 21:19 33.420316 -112.683775 182 1010ft 0kts
13-Aug-18 21:20 33.420316 -112.683775 182 1010ft 0kts
13-Aug-18 21:21 33.420316 -112.683775 182 1010ft 0kts
13-Aug-18 21:22 33.420316 -112.683775 182 1010ft 0kts
13-Aug-18 21:23 33.420316 -112.683775 182 1010ft 0kts
13-Aug-18 21:24 33.420316 -112.683775 182 1010ft 0kts
13-Aug-18 21:25 33.420316 -112.683775 182 1010ft 0kts
13-Aug-18 21:26 33.420799 -112.684839 238 1010ft 13kts
13-Aug-18 21:27 33.415322 -112.685219 192 999ft 11kts
13-Aug-18 21:28 33.417287 -112.686451 359 1002ft 66kts
13-Aug-18 21:29 33.460100 -112.684018 359 2823ft 193kts
13-Aug-18 21:30 33.515419 -112.691022 308 6363ft 212kts
13-Aug-18 21:31 33.495344 -112.768204 230 7011ft 317kts
13-Aug-18 21:32 33.451980 -112.848971 276 7003ft 281kts
13-Aug-18 21:33 33.469273 -112.934782 282 9790ft 269kts
13-Aug-18 21:34 33.481594 -113.037111 276 11888ft 335kts
13-Aug-18 21:35 33.491044 -113.149210 275 14907ft 348kts
13-Aug-18 21:36 33.499813 -113.266977 274 17488ft 362kts
13-Aug-18 21:37 33.508505 -113.389010 274 19751ft 375kts
13-Aug-18 21:38 33.517197 -113.514764 273 21744ft 385kts
13-Aug-18 21:39 33.525991 -113.645062 273 21870ft 400kts
13-Aug-18 21:40 33.534426 -113.777220 273 21849ft 409kts
13-Aug-18 21:41 33.543281 -113.911969 273 21846ft 416kts
13-Aug-18 21:42 33.552352 -114.050950 273 21845ft 422kts
13-Aug-18 21:43 33.561471 -114.193101 273 21839ft 432kts
13-Aug-18 21:44 33.570571 -114.337761 273 21836ft 438kts
13-Aug-18 21:45 33.579538 -114.484027 273 21836ft 442kts
13-Aug-18 21:46 33.578589 -114.630548 261 21838ft 443kts
13-Aug-18 21:47 33.578681 -114.777759 272 21835ft 446kts
13-Aug-18 21:48 33.585356 -114.922551 271 21833ft 444kts
13-Aug-18 21:49 33.590989 -115.062792 271 19328ft 414kts
13-Aug-18 21:50 33.596132 -115.197185 271 16405ft 396kts
13-Aug-18 21:51 33.600926 -115.326889 271 14408ft 376kts
13-Aug-18 21:52 33.605165 -115.444404 271 12980ft 343kts
13-Aug-18 21:53 33.608721 -115.548394 271 12346ft 298kts
13-Aug-18 21:54 33.612014 -115.646926 272 10971ft 285kts
13-Aug-18 21:55 33.614318 -115.724633 271 10091ft 272kts
13-Aug-18 21:56 33.616802 -115.805237 272 8945ft 269kts
13-Aug-18 21:57 33.619475 -115.889858 272 8157ft 249kts
13-Aug-18 21:58 33.595817 -115.959737 221 6872ft 231kts
13-Aug-18 21:59 33.547860 -116.009683 221 4721ft 228kts
13-Aug-18 22:00 33.523121 -116.068497 270 3649ft 170kts
13-Aug-18 22:01 33.522426 -116.119998 286 2706ft 137kts
13-Aug-18 22:02 33.546051 -116.151340 334 1709ft 123kts
13-Aug-18 22:03 33.578700 -116.156551 358 612ft 115kts
13-Aug-18 22:04 33.610504 -116.156449 357 25ft 115kts
13-Aug-18 22:05 33.629690 -116.157120 271 -104ft 16kts
13-Aug-18 22:06 33.631152 -116.157726 359 -104ft 24kts
13-Aug-18 22:07 33.636455 -116.158706 358 -104ft 10kts
13-Aug-18 22:08 33.638353 -116.158775 0 -104ft 0kts
13-Aug-18 22:09 33.638353 -116.158775 0 -104ft 0kts

Navigation Log

Ident Type
Flight plan parsing failed, navigation log unavailable